createdAt,value
2023-03-29T00:00:08.248Z,-1.20
2023-03-29T00:02:38.296Z,-1.23
2023-03-29T00:05:08.465Z,-1.27
2023-03-29T00:07:36.007Z,-1.34
2023-03-29T00:10:04.716Z,-1.39
2023-03-29T00:12:31.705Z,-1.41
2023-03-29T00:14:58.374Z,-1.31
2023-03-29T00:17:25.125Z,-1.35
2023-03-29T00:19:53.086Z,-1.42
2023-03-29T00:22:19.723Z,-1.46
2023-03-29T00:24:51.049Z,-1.39
2023-03-29T00:27:17.753Z,-1.34
2023-03-29T00:29:44.377Z,-1.39
2023-03-29T00:32:11.726Z,-1.42
2023-03-29T00:34:38.386Z,-1.46
2023-03-29T00:37:09.530Z,-1.39
2023-03-29T00:39:36.382Z,-1.49
2023-03-29T00:42:03.202Z,-1.44
2023-03-29T00:44:54.715Z,-1.50
2023-03-29T00:47:26.596Z,-1.43
2023-03-29T00:49:53.933Z,-1.61
2023-03-29T00:52:24.178Z,-1.38
2023-03-29T00:54:54.049Z,-1.42
2023-03-29T00:57:22.316Z,-1.59
2023-03-29T00:59:50.537Z,-1.65
2023-03-29T01:02:22.074Z,-1.74
2023-03-29T01:04:57.980Z,-1.75
2023-03-29T01:07:30.781Z,-1.86
2023-03-29T01:10:19.591Z,-1.85
2023-03-29T01:12:50.158Z,-1.75
2023-03-29T01:15:20.289Z,-1.86
2023-03-29T01:17:50.941Z,-1.87
2023-03-29T01:20:43.356Z,-1.96
2023-03-29T01:23:16.303Z,-1.98
2023-03-29T01:26:10.463Z,-1.99
2023-03-29T01:28:51.069Z,-1.94
2023-03-29T01:31:21.964Z,-1.95
2023-03-29T01:33:52.586Z,-1.90
2023-03-29T01:36:35.038Z,-1.87
2023-03-29T01:39:05.160Z,-1.86
2023-03-29T01:41:43.793Z,-1.86
2023-03-29T01:44:18.200Z,-1.89
2023-03-29T01:46:53.125Z,-1.87
2023-03-29T01:49:26.285Z,-1.78
2023-03-29T01:52:05.446Z,-1.70
2023-03-29T01:54:35.732Z,-1.71
2023-03-29T01:57:04.945Z,-1.79
2023-03-29T01:59:34.374Z,-1.82
2023-03-29T02:02:03.260Z,-1.82
2023-03-29T02:04:36.474Z,-1.72
2023-03-29T02:07:04.743Z,-1.74
2023-03-29T02:09:32.142Z,-1.74
2023-03-29T02:12:00.566Z,-1.77
2023-03-29T02:14:27.759Z,-1.71
2023-03-29T02:16:54.499Z,-1.71
2023-03-29T02:19:23.001Z,-1.73
2023-03-29T02:22:08.340Z,-1.70
2023-03-29T02:24:36.551Z,-1.71
2023-03-29T02:27:03.674Z,-1.71
2023-03-29T02:29:30.406Z,-1.72
2023-03-29T02:32:06.925Z,-1.72
2023-03-29T02:34:39.067Z,-1.70
2023-03-29T02:37:12.433Z,-1.68
2023-03-29T02:39:40.086Z,-1.70
2023-03-29T02:42:07.533Z,-1.62
2023-03-29T02:44:37.183Z,-1.64
2023-03-29T02:47:08.139Z,-1.57
2023-03-29T02:49:34.924Z,-1.45
2023-03-29T02:52:07.386Z,-1.50
2023-03-29T02:54:34.644Z,-1.44
2023-03-29T02:57:06.306Z,-1.49
2023-03-29T02:59:33.584Z,-1.47
2023-03-29T03:02:00.871Z,-1.37
2023-03-29T03:04:28.195Z,-1.44
2023-03-29T03:06:54.838Z,-1.44
2023-03-29T03:09:21.438Z,-1.42
2023-03-29T03:11:48.032Z,-1.40
2023-03-29T03:14:14.840Z,-1.46
2023-03-29T03:16:41.494Z,-1.37
2023-03-29T03:19:08.162Z,-1.40
2023-03-29T03:21:37.687Z,-1.36
2023-03-29T03:24:05.556Z,-1.40
2023-03-29T03:26:32.629Z,-1.31
2023-03-29T03:28:59.361Z,-1.35
2023-03-29T03:31:26.046Z,-1.43
2023-03-29T03:33:53.525Z,-1.36
2023-03-29T03:36:25.984Z,-1.35
2023-03-29T03:38:53.224Z,-1.41
2023-03-29T03:41:19.990Z,-1.44
2023-03-29T03:43:48.971Z,-1.44
2023-03-29T03:46:17.113Z,-1.44
2023-03-29T03:48:44.616Z,-1.41
2023-03-29T03:51:11.562Z,-1.45
2023-03-29T03:53:38.261Z,-1.39
2023-03-29T03:56:09.008Z,-1.38
2023-03-29T03:58:36.806Z,-1.42
2023-03-29T04:01:04.439Z,-1.39
2023-03-29T04:03:31.771Z,-1.35
2023-03-29T04:06:02.487Z,-1.38
2023-03-29T04:08:29.170Z,-1.30
2023-03-29T04:10:57.547Z,-1.27
2023-03-29T04:13:24.709Z,-1.17
2023-03-29T04:15:54.342Z,-1.14
2023-03-29T04:18:21.420Z,-1.18
2023-03-29T04:20:48.944Z,-1.20
2023-03-29T04:23:16.139Z,-1.22
2023-03-29T04:25:45.769Z,-1.24
2023-03-29T04:28:12.919Z,-1.22
2023-03-29T04:30:40.064Z,-1.21
2023-03-29T04:33:06.788Z,-1.19
2023-03-29T04:35:33.675Z,-1.14
2023-03-29T04:38:00.408Z,-1.03
2023-03-29T04:40:27.353Z,-1.05
2023-03-29T04:42:54.445Z,-1.07
2023-03-29T04:45:21.327Z,-0.97
2023-03-29T04:47:48.204Z,-0.94
2023-03-29T04:50:15.719Z,-0.98
2023-03-29T04:52:42.388Z,-0.84
2023-03-29T04:55:09.380Z,-0.88
2023-03-29T04:57:36.034Z,-0.91
2023-03-29T05:00:08.349Z,-0.81
2023-03-29T05:02:34.997Z,-0.79
2023-03-29T05:05:01.654Z,-0.65
2023-03-29T05:07:28.271Z,-0.60
2023-03-29T05:09:54.950Z,-0.52
2023-03-29T05:12:21.562Z,-0.56
2023-03-29T05:14:48.158Z,-0.54
2023-03-29T05:17:14.845Z,-0.53
2023-03-29T05:19:41.530Z,-0.43
2023-03-29T05:22:08.968Z,-0.36
2023-03-29T05:24:36.133Z,-0.22
2023-03-29T05:27:02.733Z,-0.16
2023-03-29T05:29:29.528Z,-0.08
2023-03-29T05:31:56.286Z,0.01
2023-03-29T05:34:23.021Z,0.01
2023-03-29T05:36:49.620Z,0.04
2023-03-29T05:39:16.285Z,0.19
2023-03-29T05:41:43.008Z,0.25
2023-03-29T05:44:09.672Z,0.30
2023-03-29T05:46:36.270Z,0.41
2023-03-29T05:49:03.264Z,0.44
2023-03-29T05:51:29.842Z,0.55
2023-03-29T05:53:56.633Z,0.65
2023-03-29T05:56:23.254Z,0.70
2023-03-29T05:58:51.372Z,0.75
2023-03-29T06:01:19.100Z,0.78
2023-03-29T06:03:49.220Z,0.80
2023-03-29T06:06:16.667Z,0.89
2023-03-29T06:08:44.121Z,0.97
2023-03-29T06:11:13.323Z,1.07
2023-03-29T06:13:42.182Z,1.21
2023-03-29T06:16:10.730Z,1.25
2023-03-29T06:18:40.226Z,1.33
2023-03-29T06:21:09.409Z,1.50
2023-03-29T06:23:36.924Z,1.53
2023-03-29T06:26:04.131Z,1.64
2023-03-29T06:28:30.717Z,1.63
2023-03-29T06:31:02.957Z,1.68
2023-03-29T06:33:32.322Z,1.87
2023-03-29T06:35:59.043Z,2.06
2023-03-29T06:38:28.977Z,2.00
2023-03-29T06:41:06.097Z,2.03
2023-03-29T06:43:33.485Z,2.15
2023-03-29T06:46:00.735Z,2.25
2023-03-29T06:48:27.494Z,2.26
2023-03-29T06:50:54.610Z,2.36
2023-03-29T06:53:22.047Z,2.45
2023-03-29T06:55:51.833Z,2.57
2023-03-29T06:58:18.628Z,2.69
2023-03-29T07:00:45.905Z,2.72
2023-03-29T07:03:19.935Z,2.85
2023-03-29T07:05:47.462Z,2.91
2023-03-29T07:08:16.282Z,2.98
2023-03-29T07:10:47.429Z,3.08
2023-03-29T07:13:14.282Z,3.24
2023-03-29T07:15:41.713Z,3.29
2023-03-29T07:18:09.370Z,3.41
2023-03-29T07:20:38.463Z,3.49
2023-03-29T07:23:06.385Z,3.61
2023-03-29T07:25:33.997Z,3.70
2023-03-29T07:28:00.676Z,3.70
2023-03-29T07:30:31.689Z,3.78
2023-03-29T07:32:59.376Z,3.93
2023-03-29T07:35:27.122Z,4.00
2023-03-29T07:37:55.688Z,4.11
2023-03-29T07:40:26.231Z,4.13
2023-03-29T07:42:55.271Z,4.17
2023-03-29T07:45:26.656Z,4.19
2023-03-29T07:47:57.594Z,4.33
2023-03-29T07:50:24.894Z,4.37
2023-03-29T07:52:51.493Z,4.34
2023-03-29T07:55:18.137Z,4.51
2023-03-29T07:57:44.839Z,4.58
2023-03-29T08:00:16.518Z,4.69
2023-03-29T08:02:44.729Z,4.86
2023-03-29T08:05:12.936Z,4.97
2023-03-29T08:07:41.364Z,5.08
2023-03-29T08:10:13.979Z,5.09
2023-03-29T08:12:41.123Z,5.15
2023-03-29T08:15:08.682Z,5.24
2023-03-29T08:17:36.256Z,5.27
2023-03-29T08:20:04.138Z,5.33
2023-03-29T08:22:32.152Z,5.42
2023-03-29T08:24:58.815Z,5.53
2023-03-29T08:27:25.907Z,5.68
2023-03-29T08:29:52.640Z,5.83
2023-03-29T08:32:19.283Z,5.89
2023-03-29T08:34:46.932Z,6.09
2023-03-29T08:37:15.178Z,6.31
2023-03-29T08:39:42.072Z,6.45
2023-03-29T08:42:17.696Z,6.70
2023-03-29T08:44:56.557Z,6.84
2023-03-29T08:47:59.965Z,7.05
2023-03-29T08:50:33.912Z,7.24
2023-03-29T08:53:06.840Z,7.37
2023-03-29T08:55:37.734Z,7.48
2023-03-29T08:58:07.587Z,7.48
2023-03-29T09:00:44.380Z,7.56
2023-03-29T09:03:25.344Z,7.75
2023-03-29T09:06:03.476Z,7.98
2023-03-29T09:08:30.516Z,8.17
2023-03-29T09:11:24.901Z,8.38
2023-03-29T09:14:17.451Z,8.50
2023-03-29T09:17:02.859Z,8.80
2023-03-29T09:19:54.776Z,8.83
2023-03-29T09:22:45.022Z,9.03
2023-03-29T09:25:44.046Z,9.22
2023-03-29T09:28:27.558Z,9.21
2023-03-29T09:31:07.880Z,9.23
2023-03-29T09:33:44.720Z,9.28
2023-03-29T09:36:17.604Z,9.36
2023-03-29T09:38:47.155Z,9.24
2023-03-29T09:41:21.662Z,9.52
2023-03-29T09:43:49.734Z,9.65
2023-03-29T09:46:23.633Z,9.74
2023-03-29T09:48:50.765Z,9.76
2023-03-29T09:51:22.714Z,9.81
2023-03-29T09:53:49.563Z,9.73
2023-03-29T09:56:16.912Z,9.79
2023-03-29T09:58:43.969Z,9.91
2023-03-29T10:01:14.509Z,9.92
2023-03-29T10:03:42.388Z,9.86
2023-03-29T10:06:11.167Z,9.71
2023-03-29T10:08:44.102Z,9.66
2023-03-29T10:11:20.538Z,9.79
2023-03-29T10:13:49.209Z,9.95
2023-03-29T10:16:30.348Z,10.32
2023-03-29T10:18:57.022Z,10.58
2023-03-29T10:21:24.418Z,10.92
2023-03-29T10:23:58.290Z,11.04
2023-03-29T10:26:29.603Z,10.79
2023-03-29T10:28:57.331Z,11.00
2023-03-29T10:31:25.037Z,10.88
2023-03-29T10:33:53.985Z,10.74
2023-03-29T10:36:21.953Z,10.56
2023-03-29T10:38:48.670Z,10.43
2023-03-29T10:41:21.782Z,10.58
2023-03-29T10:43:51.062Z,10.70
2023-03-29T10:46:23.957Z,10.77
2023-03-29T10:49:05.250Z,10.86
2023-03-29T10:51:32.539Z,10.87
2023-03-29T10:53:59.761Z,10.92
2023-03-29T10:56:32.391Z,10.81
2023-03-29T10:59:14.521Z,10.71
2023-03-29T11:01:58.384Z,10.70
2023-03-29T11:04:38.872Z,10.71
2023-03-29T11:07:26.416Z,11.14
2023-03-29T11:10:04.816Z,11.37
2023-03-29T11:12:43.176Z,11.47
2023-03-29T11:15:19.127Z,11.49
2023-03-29T11:17:54.688Z,11.40
2023-03-29T11:20:32.403Z,11.49
2023-03-29T11:23:13.619Z,11.41
2023-03-29T11:25:53.308Z,11.30
2023-03-29T11:28:42.448Z,11.05
2023-03-29T11:31:27.972Z,10.92
2023-03-29T11:34:22.294Z,10.68
2023-03-29T11:37:13.555Z,10.74
2023-03-29T11:39:53.256Z,10.76
2023-03-29T11:42:28.715Z,10.79
2023-03-29T11:44:59.615Z,10.88
2023-03-29T11:47:33.955Z,10.80
2023-03-29T11:50:07.704Z,10.72
2023-03-29T11:52:38.250Z,10.68
2023-03-29T11:55:26.437Z,10.83
2023-03-29T11:57:56.861Z,10.94
2023-03-29T12:00:28.941Z,11.04
2023-03-29T12:03:03.390Z,11.08
2023-03-29T12:05:34.634Z,11.00
2023-03-29T12:08:35.504Z,10.93
2023-03-29T12:11:24.117Z,11.00
2023-03-29T12:13:55.188Z,10.97
2023-03-29T12:16:29.598Z,10.93
2023-03-29T12:18:58.311Z,10.95
2023-03-29T12:21:27.020Z,11.00
2023-03-29T12:23:53.715Z,10.97
2023-03-29T12:26:34.953Z,10.92
2023-03-29T12:29:27.942Z,10.90
2023-03-29T12:32:06.701Z,10.84
2023-03-29T12:34:55.921Z,10.76
2023-03-29T12:37:40.688Z,10.76
2023-03-29T12:40:12.425Z,10.68
2023-03-29T12:42:53.304Z,10.59
2023-03-29T12:45:32.577Z,10.64
2023-03-29T12:48:00.028Z,10.64
2023-03-29T12:50:41.732Z,10.58
2023-03-29T12:53:28.504Z,10.64
2023-03-29T12:56:04.525Z,10.70
2023-03-29T12:58:43.345Z,10.70
2023-03-29T13:01:23.639Z,10.61
2023-03-29T13:03:52.115Z,10.56
2023-03-29T13:06:31.965Z,10.54
2023-03-29T13:09:05.079Z,10.56
2023-03-29T13:11:41.366Z,10.51
2023-03-29T13:14:16.977Z,10.55
2023-03-29T13:16:43.657Z,10.48
2023-03-29T13:19:27.272Z,10.53
2023-03-29T13:22:11.169Z,10.55
2023-03-29T13:25:06.223Z,10.55
2023-03-29T13:27:47.992Z,10.59
2023-03-29T13:30:28.404Z,10.59
2023-03-29T13:33:16.074Z,10.54
2023-03-29T13:35:58.966Z,10.61
2023-03-29T13:38:28.621Z,10.63
2023-03-29T13:41:03.450Z,10.53
2023-03-29T13:43:33.313Z,10.58
2023-03-29T13:45:59.778Z,10.65
2023-03-29T13:48:33.552Z,10.82
2023-03-29T13:51:07.897Z,10.86
2023-03-29T13:53:35.257Z,10.95
2023-03-29T13:56:03.112Z,10.96
2023-03-29T13:58:35.907Z,10.89
2023-03-29T14:01:19.035Z,10.79
2023-03-29T14:03:48.394Z,10.76
2023-03-29T14:06:19.412Z,10.66
2023-03-29T14:08:46.134Z,10.59
2023-03-29T14:11:21.620Z,10.56
2023-03-29T14:13:51.347Z,10.53
2023-03-29T14:16:18.377Z,10.41
2023-03-29T14:18:46.922Z,10.40
2023-03-29T14:21:14.560Z,10.37
2023-03-29T14:23:44.672Z,10.34
2023-03-29T14:26:16.925Z,10.39
2023-03-29T14:28:48.330Z,10.37
2023-03-29T14:31:45.572Z,10.31
2023-03-29T14:34:14.858Z,10.26
2023-03-29T14:36:44.880Z,10.31
2023-03-29T14:39:22.208Z,10.34
2023-03-29T14:41:51.324Z,10.33
2023-03-29T14:44:18.816Z,10.30
2023-03-29T14:46:46.866Z,10.27
2023-03-29T14:49:16.608Z,10.20
2023-03-29T14:51:44.473Z,10.15
2023-03-29T14:54:19.654Z,10.22
2023-03-29T14:56:48.849Z,10.28
2023-03-29T14:59:32.722Z,10.16
2023-03-29T15:01:59.550Z,10.22
2023-03-29T15:04:35.236Z,10.33
2023-03-29T15:07:04.280Z,10.27
2023-03-29T15:09:34.161Z,10.34
2023-03-29T15:12:02.106Z,10.33
2023-03-29T15:14:33.844Z,10.33
2023-03-29T15:17:03.796Z,10.26
2023-03-29T15:19:31.506Z,10.24
2023-03-29T15:22:05.378Z,10.23
2023-03-29T15:24:33.697Z,10.03
2023-03-29T15:27:11.208Z,10.04
2023-03-29T15:29:43.212Z,10.08
2023-03-29T15:32:11.529Z,9.91
2023-03-29T15:34:38.460Z,9.92
2023-03-29T15:37:05.217Z,9.98
2023-03-29T15:39:32.005Z,9.89
2023-03-29T15:41:58.855Z,9.94
2023-03-29T15:44:32.689Z,9.87
2023-03-29T15:47:00.005Z,9.83
2023-03-29T15:49:26.945Z,9.94
2023-03-29T15:51:56.650Z,9.87
2023-03-29T15:54:24.661Z,9.76
2023-03-29T15:56:55.284Z,9.76
2023-03-29T15:59:22.541Z,9.76
2023-03-29T16:01:49.392Z,9.63
2023-03-29T16:04:18.097Z,9.67
2023-03-29T16:06:46.895Z,9.67
2023-03-29T16:09:13.529Z,9.72
2023-03-29T16:11:42.064Z,9.59
2023-03-29T16:14:17.893Z,9.57
2023-03-29T16:16:44.801Z,9.60
2023-03-29T16:19:11.587Z,9.47
2023-03-29T16:21:38.244Z,9.45
2023-03-29T16:24:05.069Z,9.43
2023-03-29T16:26:31.707Z,9.41
2023-03-29T16:28:58.584Z,9.36
2023-03-29T16:31:27.097Z,9.28
2023-03-29T16:33:54.096Z,9.25
2023-03-29T16:36:20.813Z,9.21
2023-03-29T16:38:47.551Z,9.32
2023-03-29T16:41:15.806Z,9.43
2023-03-29T16:43:42.672Z,9.26
2023-03-29T16:46:12.845Z,9.13
2023-03-29T16:48:39.564Z,9.20
2023-03-29T16:51:07.099Z,9.13
2023-03-29T16:53:34.452Z,9.05
2023-03-29T16:56:01.541Z,9.05
2023-03-29T16:58:28.572Z,8.98
2023-03-29T17:00:56.942Z,8.94
2023-03-29T17:03:23.760Z,8.92
2023-03-29T17:05:51.962Z,8.87
2023-03-29T17:08:22.042Z,8.91
2023-03-29T17:10:53.046Z,8.81
2023-03-29T17:13:21.254Z,8.85
2023-03-29T17:15:51.764Z,8.81
2023-03-29T17:18:19.457Z,8.74
2023-03-29T17:20:46.166Z,8.70
2023-03-29T17:23:13.011Z,8.66
2023-03-29T17:25:39.682Z,8.63
2023-03-29T17:28:06.458Z,8.66
2023-03-29T17:30:34.560Z,8.60
2023-03-29T17:33:02.369Z,8.60
2023-03-29T17:35:29.234Z,8.61
2023-03-29T17:37:56.063Z,8.51
2023-03-29T17:40:22.928Z,8.45
2023-03-29T17:42:50.332Z,8.42
2023-03-29T17:45:17.124Z,8.39
2023-03-29T17:47:44.246Z,8.31
2023-03-29T17:50:12.699Z,8.22
2023-03-29T17:52:39.725Z,8.19
2023-03-29T17:55:13.300Z,8.15
2023-03-29T17:57:43.772Z,8.13
2023-03-29T18:00:13.390Z,8.07
2023-03-29T18:02:40.825Z,8.03
2023-03-29T18:05:09.380Z,8.01
2023-03-29T18:07:36.777Z,7.97
2023-03-29T18:10:03.980Z,7.94
2023-03-29T18:12:30.703Z,7.89
2023-03-29T18:14:57.307Z,7.87
2023-03-29T18:17:25.356Z,7.87
2023-03-29T18:19:52.095Z,7.86
2023-03-29T18:22:19.757Z,7.79
2023-03-29T18:24:46.645Z,7.76
2023-03-29T18:27:14.559Z,7.71
2023-03-29T18:29:41.441Z,7.68
2023-03-29T18:32:08.165Z,7.69
2023-03-29T18:34:34.863Z,7.67
2023-03-29T18:37:01.531Z,7.65
2023-03-29T18:39:28.383Z,7.62
2023-03-29T18:41:55.014Z,7.61
2023-03-29T18:44:22.916Z,7.61
2023-03-29T18:46:49.607Z,7.61
2023-03-29T18:49:16.483Z,7.58
2023-03-29T18:51:44.087Z,7.60
2023-03-29T18:54:10.899Z,7.59
2023-03-29T18:56:37.650Z,7.57
2023-03-29T18:59:06.284Z,7.61
2023-03-29T19:01:33.636Z,7.57
2023-03-29T19:04:00.682Z,7.56
2023-03-29T19:06:27.809Z,7.55
2023-03-29T19:08:55.474Z,7.54
2023-03-29T19:11:25.556Z,7.58
2023-03-29T19:13:55.601Z,7.54
2023-03-29T19:16:22.486Z,7.57
2023-03-29T19:18:49.323Z,7.54
2023-03-29T19:21:15.930Z,7.54
2023-03-29T19:23:42.719Z,7.52
2023-03-29T19:26:10.732Z,7.56
2023-03-29T19:28:37.394Z,7.53
2023-03-29T19:31:04.444Z,7.55
2023-03-29T19:33:31.271Z,7.55
2023-03-29T19:35:57.855Z,7.57
2023-03-29T19:38:24.707Z,7.53
2023-03-29T19:40:52.357Z,7.52
2023-03-29T19:43:20.641Z,7.51
2023-03-29T19:45:48.963Z,7.54
2023-03-29T19:48:22.386Z,7.51
2023-03-29T19:50:51.456Z,7.51
2023-03-29T19:53:18.248Z,7.50
2023-03-29T19:55:45.377Z,7.52
2023-03-29T19:58:12.720Z,7.55
2023-03-29T20:00:39.623Z,7.51
2023-03-29T20:03:09.959Z,7.47
2023-03-29T20:05:38.468Z,7.46
2023-03-29T20:08:05.802Z,7.42
2023-03-29T20:10:33.015Z,7.42
2023-03-29T20:12:59.868Z,7.43
2023-03-29T20:15:26.812Z,7.40
2023-03-29T20:17:57.036Z,7.39
2023-03-29T20:20:25.405Z,7.35
2023-03-29T20:23:04.636Z,7.32
2023-03-29T20:25:33.063Z,7.33
2023-03-29T20:27:59.692Z,7.28
2023-03-29T20:30:26.415Z,7.30
2023-03-29T20:32:53.213Z,7.25
2023-03-29T20:35:20.005Z,7.25
2023-03-29T20:37:46.573Z,7.24
2023-03-29T20:40:15.572Z,7.24
2023-03-29T20:42:42.236Z,7.25
2023-03-29T20:45:18.730Z,7.21
2023-03-29T20:47:50.589Z,7.15
2023-03-29T20:50:19.656Z,7.14
2023-03-29T20:52:46.476Z,7.13
2023-03-29T20:55:13.289Z,7.13
2023-03-29T20:57:42.157Z,7.15
2023-03-29T21:00:12.657Z,7.13
2023-03-29T21:02:39.618Z,7.12
2023-03-29T21:05:08.566Z,7.11
2023-03-29T21:07:35.297Z,7.08
2023-03-29T21:10:02.831Z,7.10
2023-03-29T21:12:29.827Z,7.05
2023-03-29T21:14:56.602Z,7.04
2023-03-29T21:17:23.416Z,7.00
2023-03-29T21:19:50.189Z,6.96
2023-03-29T21:22:17.590Z,6.93
2023-03-29T21:24:44.224Z,6.82
2023-03-29T21:27:11.036Z,6.75
2023-03-29T21:29:37.762Z,6.70
2023-03-29T21:32:04.729Z,6.64
2023-03-29T21:34:31.398Z,6.60
2023-03-29T21:36:58.038Z,6.54
2023-03-29T21:39:28.208Z,6.48
2023-03-29T21:41:55.006Z,6.41
2023-03-29T21:44:21.678Z,6.42
2023-03-29T21:46:48.293Z,6.32
2023-03-29T21:49:15.083Z,6.29
2023-03-29T21:51:41.834Z,6.28
2023-03-29T21:54:09.768Z,6.23
2023-03-29T21:56:36.353Z,6.22
2023-03-29T21:59:03.487Z,6.20
2023-03-29T22:01:30.380Z,6.14
2023-03-29T22:03:57.073Z,6.20
2023-03-29T22:06:23.778Z,6.17
2023-03-29T22:08:53.159Z,6.10
2023-03-29T22:11:20.220Z,6.09
2023-03-29T22:13:47.047Z,6.11
2023-03-29T22:16:16.512Z,6.07
2023-03-29T22:18:43.729Z,6.07
2023-03-29T22:21:13.793Z,6.03
2023-03-29T22:23:50.490Z,6.03
2023-03-29T22:26:18.735Z,5.98
2023-03-29T22:28:46.078Z,5.97
2023-03-29T22:31:20.642Z,6.00
2023-03-29T22:33:47.791Z,5.99
2023-03-29T22:36:25.693Z,6.04
2023-03-29T22:38:52.993Z,6.03
2023-03-29T22:41:23.554Z,6.04
2023-03-29T22:43:55.341Z,5.96
2023-03-29T22:46:22.942Z,5.95
2023-03-29T22:48:49.854Z,6.06
2023-03-29T22:51:16.816Z,6.03
2023-03-29T22:53:49.753Z,6.05
2023-03-29T22:56:16.877Z,6.02
2023-03-29T22:58:43.727Z,6.03
2023-03-29T23:01:11.346Z,6.04
2023-03-29T23:03:38.090Z,6.05
2023-03-29T23:06:05.393Z,6.08
2023-03-29T23:08:32.784Z,6.10
2023-03-29T23:11:00.649Z,6.17
2023-03-29T23:13:29.117Z,6.31
2023-03-29T23:15:59.036Z,6.20
2023-03-29T23:18:27.774Z,6.21
2023-03-29T23:20:56.856Z,6.20
2023-03-29T23:23:27.380Z,6.25
2023-03-29T23:25:55.577Z,6.19
2023-03-29T23:28:24.935Z,6.19
2023-03-29T23:31:03.524Z,6.19
2023-03-29T23:33:35.966Z,6.16
2023-03-29T23:36:04.200Z,6.19
2023-03-29T23:38:34.803Z,6.21
2023-03-29T23:41:03.733Z,6.19
2023-03-29T23:43:33.049Z,6.25
2023-03-29T23:46:05.684Z,6.17
2023-03-29T23:48:32.734Z,6.18
2023-03-29T23:50:59.689Z,6.21
2023-03-29T23:53:29.001Z,6.19
2023-03-29T23:56:01.337Z,6.21
2023-03-29T23:58:28.867Z,6.25
